sensor_id;sensor_type;location;lat;lon;timestamp;P1;durP1;ratioP1;P2;durP2;ratioP2
17524;SDS011;40431;52.198;9.902;2022-12-07T00:00:01;28.53;;;23.43;;
17524;SDS011;40431;52.198;9.902;2022-12-07T00:02:30;31.70;;;24.07;;
17524;SDS011;40431;52.198;9.902;2022-12-07T00:04:59;30.73;;;23.53;;
17524;SDS011;40431;52.198;9.902;2022-12-07T00:07:28;33.93;;;25.37;;
17524;SDS011;40431;52.198;9.902;2022-12-07T00:09:56;26.70;;;23.83;;
17524;SDS011;40431;52.198;9.902;2022-12-07T00:12:35;36.50;;;23.50;;
17524;SDS011;40431;52.198;9.902;2022-12-07T00:15:04;30.17;;;24.63;;
17524;SDS011;40431;52.198;9.902;2022-12-07T00:17:32;26.30;;;22.90;;
17524;SDS011;40431;52.198;9.902;2022-12-07T00:20:01;29.83;;;24.50;;
17524;SDS011;40431;52.198;9.902;2022-12-07T00:22:31;26.60;;;23.73;;
17524;SDS011;40431;52.198;9.902;2022-12-07T00:25:01;26.73;;;23.90;;
17524;SDS011;40431;52.198;9.902;2022-12-07T00:27:36;28.70;;;23.33;;
17524;SDS011;40431;52.198;9.902;2022-12-07T00:30:18;29.97;;;24.17;;
17524;SDS011;40431;52.198;9.902;2022-12-07T00:32:49;27.93;;;24.50;;
17524;SDS011;40431;52.198;9.902;2022-12-07T00:35:22;28.97;;;23.70;;
17524;SDS011;40431;52.198;9.902;2022-12-07T00:37:57;36.30;;;24.53;;
17524;SDS011;40431;52.198;9.902;2022-12-07T00:40:56;28.93;;;22.57;;
17524;SDS011;40431;52.198;9.902;2022-12-07T00:43:33;35.93;;;24.03;;
17524;SDS011;40431;52.198;9.902;2022-12-07T00:46:20;24.40;;;21.87;;
17524;SDS011;40431;52.198;9.902;2022-12-07T00:49:17;25.73;;;22.77;;
17524;SDS011;40431;52.198;9.902;2022-12-07T00:52:02;25.10;;;22.27;;
17524;SDS011;40431;52.198;9.902;2022-12-07T00:54:44;22.97;;;20.57;;
17524;SDS011;40431;52.198;9.902;2022-12-07T00:57:15;23.57;;;21.27;;
17524;SDS011;40431;52.198;9.902;2022-12-07T00:59:45;22.53;;;20.40;;
17524;SDS011;40431;52.198;9.902;2022-12-07T01:02:21;23.37;;;20.87;;
17524;SDS011;40431;52.198;9.902;2022-12-07T01:04:52;20.67;;;18.97;;
17524;SDS011;40431;52.198;9.902;2022-12-07T01:07:26;20.30;;;18.50;;
17524;SDS011;40431;52.198;9.902;2022-12-07T01:09:54;20.57;;;18.87;;
17524;SDS011;40431;52.198;9.902;2022-12-07T01:12:22;20.07;;;18.13;;
17524;SDS011;40431;52.198;9.902;2022-12-07T01:14:52;20.90;;;19.10;;
17524;SDS011;40431;52.198;9.902;2022-12-07T01:17:21;18.90;;;17.30;;
17524;SDS011;40431;52.198;9.902;2022-12-07T01:19:53;18.60;;;17.10;;
17524;SDS011;40431;52.198;9.902;2022-12-07T01:22:28;20.43;;;18.67;;
17524;SDS011;40431;52.198;9.902;2022-12-07T01:25:05;20.00;;;18.40;;
17524;SDS011;40431;52.198;9.902;2022-12-07T01:27:34;17.80;;;16.30;;
17524;SDS011;40431;52.198;9.902;2022-12-07T01:30:05;18.77;;;17.07;;
17524;SDS011;40431;52.198;9.902;2022-12-07T01:32:34;20.67;;;18.87;;
17524;SDS011;40431;52.198;9.902;2022-12-07T01:35:03;20.67;;;18.87;;
17524;SDS011;40431;52.198;9.902;2022-12-07T01:37:34;20.97;;;19.07;;
17524;SDS011;40431;52.198;9.902;2022-12-07T01:40:04;20.57;;;18.77;;
17524;SDS011;40431;52.198;9.902;2022-12-07T01:42:33;20.03;;;18.40;;
17524;SDS011;40431;52.198;9.902;2022-12-07T01:48:06;19.37;;;17.83;;
17524;SDS011;40431;52.198;9.902;2022-12-07T01:50:37;21.60;;;19.90;;
17524;SDS011;40431;52.198;9.902;2022-12-07T01:53:07;20.53;;;18.93;;
17524;SDS011;40431;52.198;9.902;2022-12-07T01:55:39;20.50;;;18.80;;
17524;SDS011;40431;52.198;9.902;2022-12-07T01:58:10;21.07;;;19.20;;
17524;SDS011;40431;52.198;9.902;2022-12-07T02:00:42;19.47;;;17.93;;
17524;SDS011;40431;52.198;9.902;2022-12-07T02:03:11;21.40;;;19.60;;
17524;SDS011;40431;52.198;9.902;2022-12-07T02:05:43;18.30;;;16.80;;
17524;SDS011;40431;52.198;9.902;2022-12-07T02:08:13;20.80;;;19.10;;
17524;SDS011;40431;52.198;9.902;2022-12-07T02:10:46;21.07;;;19.27;;
17524;SDS011;40431;52.198;9.902;2022-12-07T02:13:18;21.00;;;19.30;;
17524;SDS011;40431;52.198;9.902;2022-12-07T02:16:00;20.47;;;18.93;;
17524;SDS011;40431;52.198;9.902;2022-12-07T02:18:56;22.53;;;20.63;;
17524;SDS011;40431;52.198;9.902;2022-12-07T02:21:48;21.43;;;19.53;;
17524;SDS011;40431;52.198;9.902;2022-12-07T02:24:27;23.10;;;21.00;;
17524;SDS011;40431;52.198;9.902;2022-12-07T02:27:14;22.40;;;20.40;;
17524;SDS011;40431;52.198;9.902;2022-12-07T02:30:09;23.77;;;21.63;;
17524;SDS011;40431;52.198;9.902;2022-12-07T02:32:46;23.43;;;21.03;;
17524;SDS011;40431;52.198;9.902;2022-12-07T02:35:23;23.57;;;21.30;;
17524;SDS011;40431;52.198;9.902;2022-12-07T02:38:02;24.77;;;22.20;;
17524;SDS011;40431;52.198;9.902;2022-12-07T02:40:38;24.60;;;22.10;;
17524;SDS011;40431;52.198;9.902;2022-12-07T02:43:14;24.63;;;22.27;;
17524;SDS011;40431;52.198;9.902;2022-12-07T02:45:50;21.93;;;20.00;;
17524;SDS011;40431;52.198;9.902;2022-12-07T02:48:21;23.40;;;21.10;;
17524;SDS011;40431;52.198;9.902;2022-12-07T02:50:52;22.93;;;21.03;;
17524;SDS011;40431;52.198;9.902;2022-12-07T02:53:31;24.27;;;21.67;;
17524;SDS011;40431;52.198;9.902;2022-12-07T02:56:05;23.87;;;21.77;;
17524;SDS011;40431;52.198;9.902;2022-12-07T02:58:54;22.67;;;20.63;;
17524;SDS011;40431;52.198;9.902;2022-12-07T03:01:40;24.27;;;21.60;;
17524;SDS011;40431;52.198;9.902;2022-12-07T03:04:25;22.30;;;20.27;;
17524;SDS011;40431;52.198;9.902;2022-12-07T03:07:14;23.47;;;21.27;;
17524;SDS011;40431;52.198;9.902;2022-12-07T03:09:53;22.67;;;20.47;;
17524;SDS011;40431;52.198;9.902;2022-12-07T03:12:29;22.73;;;20.53;;
17524;SDS011;40431;52.198;9.902;2022-12-07T03:15:04;24.23;;;21.70;;
17524;SDS011;40431;52.198;9.902;2022-12-07T03:17:37;22.97;;;20.70;;
17524;SDS011;40431;52.198;9.902;2022-12-07T03:20:09;22.63;;;20.53;;
17524;SDS011;40431;52.198;9.902;2022-12-07T03:22:41;22.60;;;20.43;;
17524;SDS011;40431;52.198;9.902;2022-12-07T03:25:13;20.73;;;19.03;;
17524;SDS011;40431;52.198;9.902;2022-12-07T03:27:44;21.87;;;19.83;;
17524;SDS011;40431;52.198;9.902;2022-12-07T03:30:29;20.37;;;18.30;;
17524;SDS011;40431;52.198;9.902;2022-12-07T03:33:04;20.40;;;18.80;;
17524;SDS011;40431;52.198;9.902;2022-12-07T03:35:38;21.07;;;18.87;;
17524;SDS011;40431;52.198;9.902;2022-12-07T03:38:13;20.17;;;18.20;;
17524;SDS011;40431;52.198;9.902;2022-12-07T03:40:57;19.60;;;17.70;;
17524;SDS011;40431;52.198;9.902;2022-12-07T03:43:41;18.60;;;16.87;;
17524;SDS011;40431;52.198;9.902;2022-12-07T03:46:14;17.73;;;16.23;;
17524;SDS011;40431;52.198;9.902;2022-12-07T03:48:52;19.03;;;17.13;;
17524;SDS011;40431;52.198;9.902;2022-12-07T03:51:26;16.87;;;15.33;;
17524;SDS011;40431;52.198;9.902;2022-12-07T03:54:07;18.03;;;16.23;;
17524;SDS011;40431;52.198;9.902;2022-12-07T03:56:53;16.83;;;15.23;;
17524;SDS011;40431;52.198;9.902;2022-12-07T03:59:23;18.00;;;15.97;;
17524;SDS011;40431;52.198;9.902;2022-12-07T04:01:53;18.57;;;16.93;;
17524;SDS011;40431;52.198;9.902;2022-12-07T04:04:28;17.47;;;15.93;;
17524;SDS011;40431;52.198;9.902;2022-12-07T04:06:57;18.90;;;17.20;;
17524;SDS011;40431;52.198;9.902;2022-12-07T04:09:26;18.73;;;16.83;;
17524;SDS011;40431;52.198;9.902;2022-12-07T04:12:02;17.30;;;15.90;;
17524;SDS011;40431;52.198;9.902;2022-12-07T04:14:33;17.60;;;16.00;;
17524;SDS011;40431;52.198;9.902;2022-12-07T04:17:05;18.33;;;16.37;;
17524;SDS011;40431;52.198;9.902;2022-12-07T04:19:33;17.47;;;15.87;;
17524;SDS011;40431;52.198;9.902;2022-12-07T04:22:01;17.70;;;16.10;;
17524;SDS011;40431;52.198;9.902;2022-12-07T04:24:28;17.83;;;16.03;;
17524;SDS011;40431;52.198;9.902;2022-12-07T04:26:55;18.07;;;16.30;;
17524;SDS011;40431;52.198;9.902;2022-12-07T04:29:22;19.43;;;15.43;;
17524;SDS011;40431;52.198;9.902;2022-12-07T04:31:50;16.43;;;14.90;;
17524;SDS011;40431;52.198;9.902;2022-12-07T04:34:19;17.17;;;15.57;;
17524;SDS011;40431;52.198;9.902;2022-12-07T04:36:53;17.23;;;14.63;;
17524;SDS011;40431;52.198;9.902;2022-12-07T04:39:24;15.57;;;14.07;;
17524;SDS011;40431;52.198;9.902;2022-12-07T04:41:54;16.43;;;14.93;;
17524;SDS011;40431;52.198;9.902;2022-12-07T04:44:24;14.30;;;13.10;;
17524;SDS011;40431;52.198;9.902;2022-12-07T04:46:58;16.17;;;13.97;;
17524;SDS011;40431;52.198;9.902;2022-12-07T04:49:27;17.43;;;14.23;;
17524;SDS011;40431;52.198;9.902;2022-12-07T04:52:04;16.07;;;14.67;;
17524;SDS011;40431;52.198;9.902;2022-12-07T04:54:32;16.07;;;14.57;;
17524;SDS011;40431;52.198;9.902;2022-12-07T04:57:01;16.33;;;14.73;;
17524;SDS011;40431;52.198;9.902;2022-12-07T04:59:29;15.60;;;14.13;;
17524;SDS011;40431;52.198;9.902;2022-12-07T05:01:58;17.20;;;15.50;;
17524;SDS011;40431;52.198;9.902;2022-12-07T05:04:30;15.00;;;13.60;;
17524;SDS011;40431;52.198;9.902;2022-12-07T05:06:58;16.53;;;14.83;;
17524;SDS011;40431;52.198;9.902;2022-12-07T05:09:28;14.23;;;12.90;;
17524;SDS011;40431;52.198;9.902;2022-12-07T05:11:56;16.27;;;14.67;;
17524;SDS011;40431;52.198;9.902;2022-12-07T05:14:25;14.57;;;13.17;;
17524;SDS011;40431;52.198;9.902;2022-12-07T05:17:10;17.47;;;12.37;;
17524;SDS011;40431;52.198;9.902;2022-12-07T05:19:39;14.67;;;13.20;;
17524;SDS011;40431;52.198;9.902;2022-12-07T05:22:09;15.77;;;12.83;;
17524;SDS011;40431;52.198;9.902;2022-12-07T05:24:43;13.77;;;12.37;;
17524;SDS011;40431;52.198;9.902;2022-12-07T05:27:13;14.20;;;12.70;;
17524;SDS011;40431;52.198;9.902;2022-12-07T05:29:40;15.00;;;12.80;;
17524;SDS011;40431;52.198;9.902;2022-12-07T05:32:06;13.10;;;11.80;;
17524;SDS011;40431;52.198;9.902;2022-12-07T05:34:33;15.77;;;13.10;;
17524;SDS011;40431;52.198;9.902;2022-12-07T05:37:00;11.77;;;10.67;;
17524;SDS011;40431;52.198;9.902;2022-12-07T05:39:26;12.53;;;11.30;;
17524;SDS011;40431;52.198;9.902;2022-12-07T05:41:54;12.83;;;10.63;;
17524;SDS011;40431;52.198;9.902;2022-12-07T05:44:39;12.70;;;11.50;;
17524;SDS011;40431;52.198;9.902;2022-12-07T05:47:06;13.93;;;11.97;;
17524;SDS011;40431;52.198;9.902;2022-12-07T05:49:32;12.60;;;10.97;;
17524;SDS011;40431;52.198;9.902;2022-12-07T05:51:59;15.07;;;12.40;;
17524;SDS011;40431;52.198;9.902;2022-12-07T05:54:26;12.43;;;11.33;;
17524;SDS011;40431;52.198;9.902;2022-12-07T05:56:52;13.87;;;12.17;;
17524;SDS011;40431;52.198;9.902;2022-12-07T05:59:20;13.90;;;12.50;;
17524;SDS011;40431;52.198;9.902;2022-12-07T06:01:50;13.83;;;12.50;;
17524;SDS011;40431;52.198;9.902;2022-12-07T06:04:18;11.13;;;10.00;;
17524;SDS011;40431;52.198;9.902;2022-12-07T06:06:45;10.97;;;9.87;;
17524;SDS011;40431;52.198;9.902;2022-12-07T06:09:13;11.57;;;10.33;;
17524;SDS011;40431;52.198;9.902;2022-12-07T06:11:40;15.43;;;11.00;;
17524;SDS011;40431;52.198;9.902;2022-12-07T06:14:25;10.77;;;9.77;;
17524;SDS011;40431;52.198;9.902;2022-12-07T06:16:52;11.50;;;10.37;;
17524;SDS011;40431;52.198;9.902;2022-12-07T06:19:19;9.60;;;7.90;;
17524;SDS011;40431;52.198;9.902;2022-12-07T06:21:45;9.33;;;8.53;;
17524;SDS011;40431;52.198;9.902;2022-12-07T06:24:12;10.23;;;9.23;;
17524;SDS011;40431;52.198;9.902;2022-12-07T06:26:40;9.03;;;8.33;;
17524;SDS011;40431;52.198;9.902;2022-12-07T06:29:07;9.07;;;8.40;;
17524;SDS011;40431;52.198;9.902;2022-12-07T06:31:36;8.83;;;8.03;;
17524;SDS011;40431;52.198;9.902;2022-12-07T06:34:03;9.07;;;8.30;;
17524;SDS011;40431;52.198;9.902;2022-12-07T06:36:31;9.40;;;8.60;;
17524;SDS011;40431;52.198;9.902;2022-12-07T06:38:58;10.00;;;9.07;;
17524;SDS011;40431;52.198;9.902;2022-12-07T06:41:24;9.17;;;8.47;;
17524;SDS011;40431;52.198;9.902;2022-12-07T06:43:51;9.33;;;8.40;;
17524;SDS011;40431;52.198;9.902;2022-12-07T06:46:18;9.47;;;8.67;;
17524;SDS011;40431;52.198;9.902;2022-12-07T06:48:46;10.57;;;9.50;;
17524;SDS011;40431;52.198;9.902;2022-12-07T06:51:13;10.60;;;9.70;;
17524;SDS011;40431;52.198;9.902;2022-12-07T06:53:40;11.30;;;10.13;;
17524;SDS011;40431;52.198;9.902;2022-12-07T06:56:06;10.37;;;9.30;;
17524;SDS011;40431;52.198;9.902;2022-12-07T06:58:33;11.23;;;10.23;;
17524;SDS011;40431;52.198;9.902;2022-12-07T07:01:00;10.30;;;9.40;;
17524;SDS011;40431;52.198;9.902;2022-12-07T07:03:26;10.33;;;9.50;;
17524;SDS011;40431;52.198;9.902;2022-12-07T07:05:54;12.03;;;9.80;;
17524;SDS011;40431;52.198;9.902;2022-12-07T07:08:21;11.30;;;10.30;;
17524;SDS011;40431;52.198;9.902;2022-12-07T07:10:48;14.13;;;10.13;;
17524;SDS011;40431;52.198;9.902;2022-12-07T07:13:14;13.03;;;10.70;;
17524;SDS011;40431;52.198;9.902;2022-12-07T07:15:41;9.93;;;9.00;;
17524;SDS011;40431;52.198;9.902;2022-12-07T07:18:08;10.00;;;9.00;;
17524;SDS011;40431;52.198;9.902;2022-12-07T07:20:35;7.97;;;7.40;;
17524;SDS011;40431;52.198;9.902;2022-12-07T07:23:05;9.63;;;8.07;;
17524;SDS011;40431;52.198;9.902;2022-12-07T07:25:32;9.73;;;8.40;;
17524;SDS011;40431;52.198;9.902;2022-12-07T07:27:59;11.90;;;8.13;;
17524;SDS011;40431;52.198;9.902;2022-12-07T07:30:26;8.77;;;7.83;;
17524;SDS011;40431;52.198;9.902;2022-12-07T07:32:55;9.83;;;7.93;;
17524;SDS011;40431;52.198;9.902;2022-12-07T07:35:22;7.80;;;7.17;;
17524;SDS011;40431;52.198;9.902;2022-12-07T07:37:49;10.07;;;8.27;;
17524;SDS011;40431;52.198;9.902;2022-12-07T07:40:17;10.63;;;7.97;;
17524;SDS011;40431;52.198;9.902;2022-12-07T07:42:46;8.50;;;6.77;;
17524;SDS011;40431;52.198;9.902;2022-12-07T07:45:13;6.73;;;6.23;;
17524;SDS011;40431;52.198;9.902;2022-12-07T07:47:40;5.97;;;5.53;;
17524;SDS011;40431;52.198;9.902;2022-12-07T07:50:07;6.83;;;6.23;;
17524;SDS011;40431;52.198;9.902;2022-12-07T07:52:34;5.87;;;4.90;;
17524;SDS011;40431;52.198;9.902;2022-12-07T07:55:01;5.93;;;5.47;;
17524;SDS011;40431;52.198;9.902;2022-12-07T07:57:29;6.50;;;5.90;;
17524;SDS011;40431;52.198;9.902;2022-12-07T07:59:56;6.20;;;5.70;;
17524;SDS011;40431;52.198;9.902;2022-12-07T08:02:22;5.80;;;5.40;;
17524;SDS011;40431;52.198;9.902;2022-12-07T08:04:49;6.73;;;4.70;;
17524;SDS011;40431;52.198;9.902;2022-12-07T08:07:16;5.73;;;5.00;;
17524;SDS011;40431;52.198;9.902;2022-12-07T08:09:42;6.00;;;5.10;;
17524;SDS011;40431;52.198;9.902;2022-12-07T08:12:09;8.07;;;5.93;;
17524;SDS011;40431;52.198;9.902;2022-12-07T08:14:37;6.10;;;5.60;;
17524;SDS011;40431;52.198;9.902;2022-12-07T08:17:04;5.63;;;5.17;;
17524;SDS011;40431;52.198;9.902;2022-12-07T08:19:30;6.33;;;5.77;;
17524;SDS011;40431;52.198;9.902;2022-12-07T08:21:57;7.57;;;7.00;;
17524;SDS011;40431;52.198;9.902;2022-12-07T08:24:24;6.80;;;6.23;;
17524;SDS011;40431;52.198;9.902;2022-12-07T08:26:51;9.03;;;8.17;;
17524;SDS011;40431;52.198;9.902;2022-12-07T08:29:18;7.50;;;6.73;;
17524;SDS011;40431;52.198;9.902;2022-12-07T08:31:46;7.67;;;6.67;;
17524;SDS011;40431;52.198;9.902;2022-12-07T08:34:13;7.70;;;5.20;;
17524;SDS011;40431;52.198;9.902;2022-12-07T08:36:39;6.30;;;4.37;;
17524;SDS011;40431;52.198;9.902;2022-12-07T08:39:06;6.20;;;3.67;;
17524;SDS011;40431;52.198;9.902;2022-12-07T08:41:33;9.73;;;3.73;;
17524;SDS011;40431;52.198;9.902;2022-12-07T08:44:00;5.17;;;3.70;;
17524;SDS011;40431;52.198;9.902;2022-12-07T08:46:28;5.53;;;3.97;;
17524;SDS011;40431;52.198;9.902;2022-12-07T08:49:01;5.37;;;4.40;;
17524;SDS011;40431;52.198;9.902;2022-12-07T08:51:30;5.50;;;4.20;;
17524;SDS011;40431;52.198;9.902;2022-12-07T08:53:57;4.50;;;4.10;;
17524;SDS011;40431;52.198;9.902;2022-12-07T08:56:27;5.47;;;3.90;;
17524;SDS011;40431;52.198;9.902;2022-12-07T08:58:54;7.83;;;5.40;;
17524;SDS011;40431;52.198;9.902;2022-12-07T09:01:20;6.70;;;5.60;;
17524;SDS011;40431;52.198;9.902;2022-12-07T09:03:47;5.80;;;4.73;;
17524;SDS011;40431;52.198;9.902;2022-12-07T09:06:15;7.57;;;5.77;;
17524;SDS011;40431;52.198;9.902;2022-12-07T09:08:42;7.00;;;6.40;;
17524;SDS011;40431;52.198;9.902;2022-12-07T09:11:13;8.17;;;5.00;;
17524;SDS011;40431;52.198;9.902;2022-12-07T09:13:39;5.40;;;4.33;;
17524;SDS011;40431;52.198;9.902;2022-12-07T09:16:06;6.63;;;5.10;;
17524;SDS011;40431;52.198;9.902;2022-12-07T09:18:33;5.30;;;4.60;;
17524;SDS011;40431;52.198;9.902;2022-12-07T09:20:59;6.17;;;4.73;;
17524;SDS011;40431;52.198;9.902;2022-12-07T09:23:27;4.90;;;4.50;;
17524;SDS011;40431;52.198;9.902;2022-12-07T09:25:54;7.03;;;5.53;;
17524;SDS011;40431;52.198;9.902;2022-12-07T09:28:21;8.60;;;7.70;;
17524;SDS011;40431;52.198;9.902;2022-12-07T09:30:47;7.83;;;5.90;;
17524;SDS011;40431;52.198;9.902;2022-12-07T09:33:15;6.00;;;5.27;;
17524;SDS011;40431;52.198;9.902;2022-12-07T09:35:44;4.13;;;3.80;;
17524;SDS011;40431;52.198;9.902;2022-12-07T09:38:11;6.70;;;5.07;;
17524;SDS011;40431;52.198;9.902;2022-12-07T09:40:39;7.37;;;2.57;;
17524;SDS011;40431;52.198;9.902;2022-12-07T09:43:11;6.27;;;3.50;;
17524;SDS011;40431;52.198;9.902;2022-12-07T09:45:39;6.97;;;4.70;;
17524;SDS011;40431;52.198;9.902;2022-12-07T09:48:08;7.30;;;5.63;;
17524;SDS011;40431;52.198;9.902;2022-12-07T09:50:42;5.17;;;4.70;;
17524;SDS011;40431;52.198;9.902;2022-12-07T09:53:10;2.90;;;2.70;;
17524;SDS011;40431;52.198;9.902;2022-12-07T09:55:42;4.80;;;3.70;;
17524;SDS011;40431;52.198;9.902;2022-12-07T09:58:10;7.97;;;6.90;;
17524;SDS011;40431;52.198;9.902;2022-12-07T10:00:45;6.57;;;6.00;;
17524;SDS011;40431;52.198;9.902;2022-12-07T10:03:12;3.37;;;3.07;;
17524;SDS011;40431;52.198;9.902;2022-12-07T10:05:39;4.83;;;4.43;;
17524;SDS011;40431;52.198;9.902;2022-12-07T10:08:09;3.70;;;3.40;;
17524;SDS011;40431;52.198;9.902;2022-12-07T10:10:38;5.03;;;3.80;;
17524;SDS011;40431;52.198;9.902;2022-12-07T10:13:08;4.13;;;3.43;;
17524;SDS011;40431;52.198;9.902;2022-12-07T10:15:41;4.77;;;3.60;;
17524;SDS011;40431;52.198;9.902;2022-12-07T10:18:25;4.67;;;3.50;;
17524;SDS011;40431;52.198;9.902;2022-12-07T10:21:03;3.33;;;3.03;;
17524;SDS011;40431;52.198;9.902;2022-12-07T10:23:37;5.60;;;4.60;;
17524;SDS011;40431;52.198;9.902;2022-12-07T10:26:28;4.47;;;2.83;;
17524;SDS011;40431;52.198;9.902;2022-12-07T10:29:00;3.10;;;2.67;;
17524;SDS011;40431;52.198;9.902;2022-12-07T10:31:49;3.23;;;2.90;;
17524;SDS011;40431;52.198;9.902;2022-12-07T10:34:32;3.73;;;3.53;;
17524;SDS011;40431;52.198;9.902;2022-12-07T10:37:14;4.00;;;2.70;;
17524;SDS011;40431;52.198;9.902;2022-12-07T10:39:44;3.83;;;2.53;;
17524;SDS011;40431;52.198;9.902;2022-12-07T10:42:18;3.67;;;2.80;;
17524;SDS011;40431;52.198;9.902;2022-12-07T10:44:50;2.87;;;2.67;;
17524;SDS011;40431;52.198;9.902;2022-12-07T10:47:45;2.37;;;2.17;;
17524;SDS011;40431;52.198;9.902;2022-12-07T10:50:31;3.57;;;2.87;;
17524;SDS011;40431;52.198;9.902;2022-12-07T10:53:20;4.67;;;3.27;;
17524;SDS011;40431;52.198;9.902;2022-12-07T10:56:20;3.83;;;2.93;;
17524;SDS011;40431;52.198;9.902;2022-12-07T10:59:35;2.90;;;2.70;;
17524;SDS011;40431;52.198;9.902;2022-12-07T11:02:47;3.10;;;2.50;;
17524;SDS011;40431;52.198;9.902;2022-12-07T11:05:33;2.70;;;2.50;;
17524;SDS011;40431;52.198;9.902;2022-12-07T11:08:21;3.50;;;3.20;;
17524;SDS011;40431;52.198;9.902;2022-12-07T11:11:13;3.93;;;3.63;;
17524;SDS011;40431;52.198;9.902;2022-12-07T11:13:47;6.63;;;3.57;;
17524;SDS011;40431;52.198;9.902;2022-12-07T11:16:21;4.00;;;3.70;;
17524;SDS011;40431;52.198;9.902;2022-12-07T11:19:16;5.00;;;4.30;;
17524;SDS011;40431;52.198;9.902;2022-12-07T11:21:56;5.03;;;4.73;;
17524;SDS011;40431;52.198;9.902;2022-12-07T11:24:31;5.93;;;5.27;;
17524;SDS011;40431;52.198;9.902;2022-12-07T11:27:11;6.27;;;4.30;;
17524;SDS011;40431;52.198;9.902;2022-12-07T11:29:50;4.67;;;4.17;;
17524;SDS011;40431;52.198;9.902;2022-12-07T11:32:32;3.83;;;3.53;;
17524;SDS011;40431;52.198;9.902;2022-12-07T11:35:21;3.87;;;3.53;;
17524;SDS011;40431;52.198;9.902;2022-12-07T11:37:59;5.27;;;3.43;;
17524;SDS011;40431;52.198;9.902;2022-12-07T11:40:35;4.10;;;3.13;;
17524;SDS011;40431;52.198;9.902;2022-12-07T11:43:13;5.13;;;4.63;;
17524;SDS011;40431;52.198;9.902;2022-12-07T11:46:02;5.13;;;4.57;;
17524;SDS011;40431;52.198;9.902;2022-12-07T11:48:38;5.50;;;4.53;;
17524;SDS011;40431;52.198;9.902;2022-12-07T11:51:27;7.17;;;5.30;;
17524;SDS011;40431;52.198;9.902;2022-12-07T11:54:02;5.80;;;5.20;;
17524;SDS011;40431;52.198;9.902;2022-12-07T11:56:40;6.13;;;5.57;;
17524;SDS011;40431;52.198;9.902;2022-12-07T11:59:19;5.70;;;5.17;;
17524;SDS011;40431;52.198;9.902;2022-12-07T12:01:55;8.20;;;5.97;;
17524;SDS011;40431;52.198;9.902;2022-12-07T12:04:31;5.90;;;5.40;;
17524;SDS011;40431;52.198;9.902;2022-12-07T12:07:10;6.90;;;5.10;;
17524;SDS011;40431;52.198;9.902;2022-12-07T12:09:48;6.20;;;5.60;;
17524;SDS011;40431;52.198;9.902;2022-12-07T12:15:26;4.30;;;3.90;;
17524;SDS011;40431;52.198;9.902;2022-12-07T12:18:06;7.90;;;4.03;;
17524;SDS011;40431;52.198;9.902;2022-12-07T12:20:53;4.60;;;2.60;;
17524;SDS011;40431;52.198;9.902;2022-12-07T12:23:28;4.53;;;3.77;;
17524;SDS011;40431;52.198;9.902;2022-12-07T12:26:06;10.93;;;3.30;;
17524;SDS011;40431;52.198;9.902;2022-12-07T12:28:50;6.00;;;2.53;;
17524;SDS011;40431;52.198;9.902;2022-12-07T12:31:36;3.93;;;2.60;;
17524;SDS011;40431;52.198;9.902;2022-12-07T12:34:31;7.70;;;2.43;;
17524;SDS011;40431;52.198;9.902;2022-12-07T12:37:14;4.70;;;2.50;;
17524;SDS011;40431;52.198;9.902;2022-12-07T12:58:37;5.70;;;3.70;;
17524;SDS011;40431;52.198;9.902;2022-12-07T13:07:11;6.63;;;4.40;;
17524;SDS011;40431;52.198;9.902;2022-12-07T13:09:46;4.27;;;3.83;;
17524;SDS011;40431;52.198;9.902;2022-12-07T13:12:19;7.60;;;4.30;;
17524;SDS011;40431;52.198;9.902;2022-12-07T13:14:56;6.53;;;3.50;;
17524;SDS011;40431;52.198;9.902;2022-12-07T13:20:45;4.13;;;3.00;;
17524;SDS011;40431;52.198;9.902;2022-12-07T13:23:20;6.60;;;3.27;;
17524;SDS011;40431;52.198;9.902;2022-12-07T13:26:02;4.80;;;3.00;;
17524;SDS011;40431;52.198;9.902;2022-12-07T13:28:42;4.03;;;2.70;;
17524;SDS011;40431;52.198;9.902;2022-12-07T13:31:37;5.40;;;3.60;;
17524;SDS011;40431;52.198;9.902;2022-12-07T13:34:31;11.53;;;8.40;;
17524;SDS011;40431;52.198;9.902;2022-12-07T13:37:10;16.93;;;7.23;;
17524;SDS011;40431;52.198;9.902;2022-12-07T13:39:51;8.93;;;5.20;;
17524;SDS011;40431;52.198;9.902;2022-12-07T13:42:24;6.67;;;5.87;;
17524;SDS011;40431;52.198;9.902;2022-12-07T13:44:56;8.63;;;5.57;;
17524;SDS011;40431;52.198;9.902;2022-12-07T13:47:34;8.00;;;6.23;;
17524;SDS011;40431;52.198;9.902;2022-12-07T13:50:21;11.90;;;6.93;;
17524;SDS011;40431;52.198;9.902;2022-12-07T13:52:57;7.03;;;3.70;;
17524;SDS011;40431;52.198;9.902;2022-12-07T13:55:28;4.80;;;3.50;;
17524;SDS011;40431;52.198;9.902;2022-12-07T13:58:11;3.60;;;3.07;;
17524;SDS011;40431;52.198;9.902;2022-12-07T14:00:40;4.93;;;3.00;;
17524;SDS011;40431;52.198;9.902;2022-12-07T14:03:32;6.90;;;3.70;;
17524;SDS011;40431;52.198;9.902;2022-12-07T14:09:08;4.40;;;3.73;;
17524;SDS011;40431;52.198;9.902;2022-12-07T14:11:45;5.67;;;5.03;;
17524;SDS011;40431;52.198;9.902;2022-12-07T14:14:27;6.23;;;4.80;;
17524;SDS011;40431;52.198;9.902;2022-12-07T14:17:01;7.63;;;6.57;;
17524;SDS011;40431;52.198;9.902;2022-12-07T14:19:50;14.07;;;5.40;;
17524;SDS011;40431;52.198;9.902;2022-12-07T14:22:26;9.17;;;5.13;;
17524;SDS011;40431;52.198;9.902;2022-12-07T14:25:17;8.53;;;4.57;;
17524;SDS011;40431;52.198;9.902;2022-12-07T14:27:53;8.43;;;4.53;;
17524;SDS011;40431;52.198;9.902;2022-12-07T14:30:46;4.93;;;4.50;;
17524;SDS011;40431;52.198;9.902;2022-12-07T14:33:16;6.13;;;5.53;;
17524;SDS011;40431;52.198;9.902;2022-12-07T14:35:50;7.37;;;4.60;;
17524;SDS011;40431;52.198;9.902;2022-12-07T14:38:21;5.67;;;3.67;;
17524;SDS011;40431;52.198;9.902;2022-12-07T14:40:54;5.43;;;4.93;;
17524;SDS011;40431;52.198;9.902;2022-12-07T14:43:49;7.07;;;5.40;;
17524;SDS011;40431;52.198;9.902;2022-12-07T14:46:20;6.90;;;6.00;;
17524;SDS011;40431;52.198;9.902;2022-12-07T14:48:58;5.50;;;4.07;;
17524;SDS011;40431;52.198;9.902;2022-12-07T14:51:37;4.73;;;4.00;;
17524;SDS011;40431;52.198;9.902;2022-12-07T14:54:16;5.13;;;4.67;;
17524;SDS011;40431;52.198;9.902;2022-12-07T14:56:48;5.77;;;5.03;;
17524;SDS011;40431;52.198;9.902;2022-12-07T14:59:19;6.13;;;4.93;;
17524;SDS011;40431;52.198;9.902;2022-12-07T15:02:04;5.17;;;4.23;;
17524;SDS011;40431;52.198;9.902;2022-12-07T15:04:43;6.13;;;4.57;;
17524;SDS011;40431;52.198;9.902;2022-12-07T15:07:18;12.90;;;6.33;;
17524;SDS011;40431;52.198;9.902;2022-12-07T15:09:53;7.80;;;5.13;;
17524;SDS011;40431;52.198;9.902;2022-12-07T15:12:26;5.57;;;5.07;;
17524;SDS011;40431;52.198;9.902;2022-12-07T15:15:01;6.20;;;5.50;;
17524;SDS011;40431;52.198;9.902;2022-12-07T15:17:33;5.43;;;5.03;;
17524;SDS011;40431;52.198;9.902;2022-12-07T15:20:08;7.70;;;5.60;;
17524;SDS011;40431;52.198;9.902;2022-12-07T15:22:50;8.43;;;4.80;;
17524;SDS011;40431;52.198;9.902;2022-12-07T15:25:27;4.93;;;4.20;;
17524;SDS011;40431;52.198;9.902;2022-12-07T15:27:59;9.27;;;4.73;;
17524;SDS011;40431;52.198;9.902;2022-12-07T15:30:28;4.50;;;4.10;;
17524;SDS011;40431;52.198;9.902;2022-12-07T15:36:06;5.20;;;4.20;;
17524;SDS011;40431;52.198;9.902;2022-12-07T15:38:48;4.90;;;3.87;;
17524;SDS011;40431;52.198;9.902;2022-12-07T15:41:17;5.33;;;3.97;;
17524;SDS011;40431;52.198;9.902;2022-12-07T15:43:48;4.87;;;4.43;;
17524;SDS011;40431;52.198;9.902;2022-12-07T15:46:34;4.90;;;4.47;;
17524;SDS011;40431;52.198;9.902;2022-12-07T15:49:16;17.17;;;13.80;;
17524;SDS011;40431;52.198;9.902;2022-12-07T15:51:47;10.93;;;8.70;;
17524;SDS011;40431;52.198;9.902;2022-12-07T15:54:22;5.93;;;5.33;;